createdAt,value
2018-10-18T00:01:26.505Z,17.70
2018-10-18T00:03:53.736Z,18.23
2018-10-18T00:06:20.985Z,20.00
2018-10-18T00:08:48.210Z,20.00
2018-10-18T00:11:15.477Z,25.53
2018-10-18T00:13:42.740Z,23.40
2018-10-18T00:16:10.046Z,32.55
2018-10-18T00:18:37.318Z,19.15
2018-10-18T00:21:04.789Z,25.95
2018-10-18T00:23:32.099Z,21.75
2018-10-18T00:25:59.501Z,23.18
2018-10-18T00:28:26.896Z,22.65
2018-10-18T00:30:54.284Z,21.30
2018-10-18T00:33:21.586Z,20.55
2018-10-18T00:35:48.858Z,21.30
2018-10-18T00:38:16.207Z,22.17
2018-10-18T00:40:43.511Z,22.65
2018-10-18T00:43:10.896Z,23.92
2018-10-18T00:45:38.213Z,23.32
2018-10-18T00:48:05.662Z,24.87
2018-10-18T00:50:32.929Z,25.88
2018-10-18T00:53:00.401Z,24.25
2018-10-18T00:55:27.723Z,22.95
2018-10-18T00:57:55.042Z,21.97
2018-10-18T01:00:22.326Z,26.40
2018-10-18T01:02:49.652Z,25.90
2018-10-18T01:05:17.562Z,19.57
2018-10-18T01:07:44.910Z,24.45
2018-10-18T01:10:12.198Z,24.00
2018-10-18T01:14:09.049Z,23.65
2018-10-18T01:16:36.371Z,19.52
2018-10-18T01:19:03.736Z,22.50
2018-10-18T01:21:31.122Z,22.05
2018-10-18T01:23:58.397Z,21.40
2018-10-18T01:26:25.751Z,25.97
2018-10-18T01:28:53.019Z,30.80
2018-10-18T01:31:20.327Z,22.95
2018-10-18T01:33:47.568Z,20.02
2018-10-18T01:36:15.348Z,23.22
2018-10-18T01:38:42.597Z,29.90
2018-10-18T01:41:09.941Z,18.12
2018-10-18T01:43:37.333Z,27.40
2018-10-18T01:46:05.185Z,27.32
2018-10-18T01:48:32.438Z,24.60
2018-10-18T01:50:59.702Z,28.12
2018-10-18T01:53:26.964Z,22.60
2018-10-18T01:55:54.380Z,19.60
2018-10-18T01:58:21.596Z,32.00
2018-10-18T02:00:48.910Z,24.18
2018-10-18T02:03:16.248Z,27.82
2018-10-18T02:05:43.644Z,20.77
2018-10-18T02:08:11.006Z,25.27
2018-10-18T02:10:38.269Z,24.15
2018-10-18T02:13:05.666Z,27.87
2018-10-18T02:15:32.945Z,19.27
2018-10-18T02:18:00.257Z,22.82
2018-10-18T02:20:27.627Z,33.20
2018-10-18T02:22:54.951Z,23.27
2018-10-18T02:25:22.319Z,25.00
2018-10-18T02:27:49.543Z,21.05
2018-10-18T02:30:16.840Z,24.60
2018-10-18T02:32:44.093Z,23.27
2018-10-18T02:35:11.376Z,23.70
2018-10-18T02:37:38.668Z,20.12
2018-10-18T02:40:06.068Z,25.88
2018-10-18T02:42:33.349Z,28.23
2018-10-18T02:45:00.663Z,29.42
2018-10-18T02:47:27.930Z,23.02
2018-10-18T02:49:55.231Z,25.05
2018-10-18T02:52:22.610Z,25.25
2018-10-18T02:54:49.978Z,23.70
2018-10-18T02:57:17.250Z,32.95
2018-10-18T02:59:44.597Z,26.20
2018-10-18T03:02:11.927Z,22.17
2018-10-18T03:04:39.211Z,21.57
2018-10-18T03:07:07.137Z,20.80
2018-10-18T03:09:34.428Z,28.40
2018-10-18T03:12:02.538Z,25.57
2018-10-18T03:14:29.982Z,36.77
2018-10-18T03:16:57.319Z,29.02
2018-10-18T03:19:24.926Z,23.83
2018-10-18T03:21:52.177Z,23.12
2018-10-18T03:24:19.564Z,24.20
2018-10-18T03:26:46.704Z,24.05
2018-10-18T03:29:13.969Z,24.80
2018-10-18T03:31:41.301Z,28.25
2018-10-18T03:34:08.555Z,36.88
2018-10-18T03:36:35.856Z,31.00
2018-10-18T03:39:05.265Z,25.25
2018-10-18T03:41:32.770Z,23.50
2018-10-18T03:44:00.082Z,23.30
2018-10-18T03:46:27.385Z,31.00
2018-10-18T03:48:54.622Z,26.62
2018-10-18T03:51:21.925Z,37.33
2018-10-18T03:53:49.184Z,23.70
2018-10-18T03:56:16.492Z,22.58
2018-10-18T03:58:43.820Z,25.60
2018-10-18T04:01:11.082Z,27.95
2018-10-18T04:03:39.212Z,30.88
2018-10-18T04:06:06.574Z,32.15
2018-10-18T04:08:33.844Z,27.73
2018-10-18T04:11:01.141Z,25.37
2018-10-18T04:13:28.456Z,28.95
2018-10-18T04:15:55.780Z,28.80
2018-10-18T04:18:23.142Z,25.43
2018-10-18T04:20:50.432Z,27.85
2018-10-18T04:23:23.210Z,28.32
2018-10-18T04:25:50.556Z,28.23
2018-10-18T04:28:17.845Z,27.30
2018-10-18T04:30:45.135Z,25.17
2018-10-18T04:33:12.403Z,27.75
2018-10-18T04:35:39.720Z,33.83
2018-10-18T04:38:38.292Z,31.75
2018-10-18T04:41:05.623Z,23.92
2018-10-18T04:43:32.898Z,34.10
2018-10-18T04:46:00.335Z,30.05
2018-10-18T04:48:27.721Z,27.77
2018-10-18T04:50:54.843Z,27.50
2018-10-18T04:53:22.175Z,30.32
2018-10-18T04:55:49.412Z,22.17
2018-10-18T04:58:16.752Z,28.17
2018-10-18T05:00:44.084Z,27.20
2018-10-18T05:03:11.406Z,26.62
2018-10-18T05:05:46.882Z,23.98
2018-10-18T05:08:14.147Z,26.37
2018-10-18T05:10:41.436Z,31.95
2018-10-18T05:13:08.695Z,25.70
2018-10-18T05:15:35.996Z,28.17
2018-10-18T05:18:03.328Z,31.10
2018-10-18T05:20:30.612Z,29.40
2018-10-18T05:22:57.901Z,33.95
2018-10-18T05:25:25.309Z,25.92
2018-10-18T05:27:52.527Z,28.23
2018-10-18T05:30:19.766Z,31.50
2018-10-18T05:32:46.987Z,33.13
2018-10-18T05:35:14.160Z,43.60
2018-10-18T05:37:41.490Z,30.00
2018-10-18T05:40:08.827Z,28.57
2018-10-18T05:42:36.097Z,30.52
2018-10-18T05:45:03.900Z,29.52
2018-10-18T05:47:31.220Z,38.65
2018-10-18T05:49:58.643Z,36.65
2018-10-18T05:52:26.131Z,30.72
2018-10-18T05:54:53.419Z,28.73
2018-10-18T05:57:22.235Z,35.45
2018-10-18T05:59:49.546Z,30.40
2018-10-18T06:02:16.845Z,27.67
2018-10-18T06:04:44.486Z,29.98
2018-10-18T06:07:11.982Z,27.70
2018-10-18T06:09:39.268Z,33.13
2018-10-18T06:12:06.701Z,29.35
2018-10-18T06:14:34.006Z,29.40
2018-10-18T06:17:01.470Z,33.78
2018-10-18T06:19:28.804Z,30.00
2018-10-18T06:21:56.377Z,27.82
2018-10-18T06:24:24.242Z,23.77
2018-10-18T06:26:51.915Z,26.17
2018-10-18T06:29:19.452Z,24.23
2018-10-18T06:31:46.787Z,41.80
2018-10-18T06:34:14.141Z,31.30
2018-10-18T06:36:41.437Z,30.90
2018-10-18T06:39:10.044Z,28.55
2018-10-18T06:41:38.294Z,26.10
2018-10-18T06:44:05.730Z,34.92
2018-10-18T06:46:33.273Z,33.70
2018-10-18T06:49:00.899Z,33.13
2018-10-18T06:51:28.343Z,109.12
2018-10-18T06:53:55.943Z,51.30
2018-10-18T06:56:23.445Z,41.75
2018-10-18T06:58:50.954Z,37.70
2018-10-18T07:01:18.460Z,30.35
2018-10-18T07:03:46.215Z,29.27
2018-10-18T07:06:13.793Z,27.87
2018-10-18T07:08:40.902Z,31.57
2018-10-18T07:11:08.362Z,27.48
2018-10-18T07:13:35.647Z,24.85
2018-10-18T07:16:03.181Z,25.52
2018-10-18T07:18:30.824Z,22.30
2018-10-18T07:20:58.641Z,28.90
2018-10-18T07:23:26.114Z,30.50
2018-10-18T07:25:53.659Z,25.15
2018-10-18T07:28:21.272Z,26.60
2018-10-18T07:30:48.784Z,21.20
2018-10-18T07:33:16.470Z,25.20
2018-10-18T07:35:44.052Z,26.00
2018-10-18T07:38:11.632Z,22.20
2018-10-18T07:40:39.181Z,28.20
2018-10-18T07:43:06.760Z,28.03
2018-10-18T07:45:34.472Z,22.97
2018-10-18T07:48:02.047Z,26.03
2018-10-18T07:50:29.720Z,22.93
2018-10-18T07:52:57.334Z,25.60
2018-10-18T07:55:25.098Z,25.40
2018-10-18T07:57:52.713Z,34.73
2018-10-18T08:00:20.492Z,30.70
2018-10-18T08:02:48.062Z,34.10
2018-10-18T08:05:15.531Z,26.43
2018-10-18T08:07:43.057Z,29.83
2018-10-18T08:10:18.660Z,25.97
2018-10-18T08:12:46.155Z,31.20
2018-10-18T08:15:15.011Z,24.30
2018-10-18T08:17:43.203Z,26.30
2018-10-18T08:20:12.665Z,31.43
2018-10-18T08:22:41.085Z,67.00
2018-10-18T08:25:08.418Z,43.87
2018-10-18T08:27:36.136Z,27.40
2018-10-18T08:30:04.393Z,36.47
2018-10-18T08:32:31.770Z,36.70
2018-10-18T08:34:59.129Z,34.40
2018-10-18T08:37:26.546Z,43.00
2018-10-18T08:39:54.445Z,28.27
2018-10-18T08:42:21.876Z,47.23
2018-10-18T08:44:49.203Z,24.37
2018-10-18T08:47:16.531Z,35.07
2018-10-18T08:49:43.991Z,28.17
2018-10-18T08:52:11.381Z,30.17
2018-10-18T08:56:03.513Z,26.33
2018-10-18T08:58:30.973Z,29.60
2018-10-18T09:00:58.350Z,35.70
2018-10-18T09:03:25.799Z,41.43
2018-10-18T09:05:53.153Z,40.47
2018-10-18T09:08:20.516Z,29.40
2018-10-18T09:10:47.843Z,26.47
2018-10-18T09:13:15.206Z,29.77
2018-10-18T09:15:42.524Z,32.50
2018-10-18T09:18:09.825Z,28.67
2018-10-18T09:20:37.144Z,27.80
2018-10-18T09:23:04.770Z,28.20
2018-10-18T09:25:32.073Z,34.63
2018-10-18T09:27:59.785Z,25.20
2018-10-18T09:30:27.520Z,28.90
2018-10-18T09:32:54.948Z,27.87
2018-10-18T09:35:23.209Z,29.30
2018-10-18T09:37:50.470Z,27.43
2018-10-18T09:40:17.833Z,26.10
2018-10-18T09:42:45.166Z,27.67
2018-10-18T09:45:12.695Z,33.40
2018-10-18T09:47:39.980Z,29.60
2018-10-18T09:50:07.862Z,27.30
2018-10-18T09:52:35.390Z,37.47
2018-10-18T09:55:02.753Z,36.37
2018-10-18T09:57:30.045Z,38.43
2018-10-18T09:59:57.399Z,32.43
2018-10-18T10:02:30.478Z,28.93
2018-10-18T10:04:57.784Z,29.30
2018-10-18T10:07:25.184Z,26.20
2018-10-18T10:09:52.507Z,31.33
2018-10-18T10:12:19.916Z,35.97
2018-10-18T10:14:47.438Z,28.07
2018-10-18T10:17:14.843Z,28.40
2018-10-18T10:19:42.215Z,28.33
2018-10-18T10:22:09.507Z,25.13
2018-10-18T10:24:36.888Z,31.27
2018-10-18T10:27:04.290Z,63.30
2018-10-18T10:29:31.630Z,65.67
2018-10-18T10:31:58.950Z,30.17
2018-10-18T10:34:26.318Z,34.83
2018-10-18T10:36:53.643Z,26.90
2018-10-18T10:39:20.978Z,22.83
2018-10-18T10:41:48.346Z,23.73
2018-10-18T10:44:15.788Z,27.50
2018-10-18T10:46:43.095Z,24.20
2018-10-18T10:49:10.404Z,31.43
2018-10-18T10:51:37.807Z,25.73
2018-10-18T10:54:05.700Z,20.63
2018-10-18T10:56:32.973Z,23.80
2018-10-18T10:59:01.384Z,23.70
2018-10-18T11:01:28.658Z,26.50
2018-10-18T11:04:00.200Z,23.90
2018-10-18T11:06:28.320Z,26.43
2018-10-18T11:08:56.311Z,24.10
2018-10-18T11:11:24.404Z,28.30
2018-10-18T11:13:51.740Z,23.80
2018-10-18T11:16:19.075Z,30.33
2018-10-18T11:18:46.332Z,31.03
2018-10-18T11:21:15.005Z,31.73
2018-10-18T11:23:42.292Z,27.27
2018-10-18T11:26:09.669Z,35.50
2018-10-18T11:28:36.964Z,39.00
2018-10-18T11:31:04.357Z,28.73
2018-10-18T11:33:31.725Z,29.10
2018-10-18T11:36:01.024Z,38.77
2018-10-18T11:38:28.524Z,31.87
2018-10-18T11:40:55.861Z,27.03
2018-10-18T11:43:23.238Z,33.53
2018-10-18T11:45:50.535Z,29.37
2018-10-18T11:48:17.814Z,26.40
2018-10-18T11:50:45.228Z,26.73
2018-10-18T11:53:12.542Z,39.43
2018-10-18T11:55:39.900Z,29.43
2018-10-18T11:58:08.121Z,32.10
2018-10-18T12:00:35.436Z,30.93
2018-10-18T12:03:02.798Z,23.97
2018-10-18T12:05:30.105Z,20.23
2018-10-18T12:07:57.464Z,28.13
2018-10-18T12:10:24.867Z,29.53
2018-10-18T12:12:52.186Z,28.13
2018-10-18T12:17:59.166Z,36.20
2018-10-18T12:20:26.504Z,23.73
2018-10-18T12:22:53.949Z,30.67
2018-10-18T12:25:21.337Z,30.23
2018-10-18T12:27:48.706Z,26.73
2018-10-18T12:30:16.011Z,30.97
2018-10-18T12:32:43.306Z,28.53
2018-10-18T12:35:10.667Z,23.17
2018-10-18T12:37:37.985Z,43.37
2018-10-18T12:40:06.704Z,21.13
2018-10-18T12:42:34.586Z,23.03
2018-10-18T12:45:01.932Z,24.93
2018-10-18T12:47:29.359Z,23.50
2018-10-18T12:49:56.752Z,19.23
2018-10-18T12:52:24.064Z,25.93
2018-10-18T12:54:51.480Z,24.80
2018-10-18T12:57:18.782Z,22.00
2018-10-18T12:59:46.104Z,35.50
2018-10-18T13:02:13.518Z,22.63
2018-10-18T13:04:40.674Z,26.10
2018-10-18T13:07:08.036Z,30.33
2018-10-18T13:09:35.457Z,18.07
2018-10-18T13:12:02.778Z,28.37
2018-10-18T13:14:34.852Z,21.67
2018-10-18T13:17:02.348Z,23.20
2018-10-18T13:19:29.710Z,22.60
2018-10-18T13:21:57.069Z,22.87
2018-10-18T13:24:24.449Z,24.10
2018-10-18T13:26:51.808Z,26.03
2018-10-18T13:29:19.088Z,30.73
2018-10-18T13:31:46.653Z,25.10
2018-10-18T13:34:14.123Z,23.30
2018-10-18T13:36:41.416Z,22.70
2018-10-18T13:39:11.568Z,20.97
2018-10-18T13:41:38.825Z,26.53
2018-10-18T13:44:06.232Z,21.00
2018-10-18T13:46:33.754Z,21.30
2018-10-18T13:49:01.140Z,22.77
2018-10-18T13:51:28.508Z,28.30
2018-10-18T13:53:55.870Z,27.23
2018-10-18T13:56:23.241Z,21.60
2018-10-18T13:58:50.521Z,21.73
2018-10-18T14:01:17.883Z,23.77
2018-10-18T14:03:45.167Z,26.77
2018-10-18T14:06:12.464Z,23.17
2018-10-18T14:08:39.776Z,30.60
2018-10-18T14:11:07.050Z,33.30
2018-10-18T14:13:34.382Z,31.00
2018-10-18T14:16:01.710Z,25.53
2018-10-18T14:18:29.077Z,30.50
2018-10-18T14:20:56.386Z,21.33
2018-10-18T14:23:23.737Z,23.23
2018-10-18T14:25:51.133Z,27.67
2018-10-18T14:28:18.500Z,28.93
2018-10-18T14:33:25.530Z,22.00
2018-10-18T14:35:52.907Z,24.87
2018-10-18T14:39:24.127Z,29.13
2018-10-18T14:41:51.589Z,39.97
2018-10-18T14:44:18.890Z,34.03
2018-10-18T14:46:46.192Z,27.93
2018-10-18T14:49:13.512Z,28.80
2018-10-18T14:51:41.062Z,51.47
2018-10-18T14:54:08.428Z,32.73
2018-10-18T14:56:35.716Z,30.60
2018-10-18T14:59:03.076Z,35.67
2018-10-18T15:01:30.395Z,16.50
2018-10-18T15:03:57.706Z,27.23
2018-10-18T15:06:25.156Z,26.33
2018-10-18T15:08:52.465Z,24.10
2018-10-18T15:11:19.767Z,21.23
2018-10-18T15:13:47.041Z,18.27
2018-10-18T15:16:14.328Z,18.47
2018-10-18T15:18:41.669Z,18.80
2018-10-18T15:21:09.262Z,31.43
2018-10-18T15:23:36.582Z,245.37
2018-10-18T15:26:04.210Z,380.47
2018-10-18T15:28:31.574Z,78.13
2018-10-18T15:30:58.878Z,100.10
2018-10-18T15:33:26.167Z,35.53
2018-10-18T15:35:53.479Z,25.23
2018-10-18T15:38:20.942Z,27.50
2018-10-18T15:40:48.133Z,29.93
2018-10-18T15:43:15.478Z,24.43
2018-10-18T15:45:42.775Z,22.77
2018-10-18T15:48:10.065Z,27.07
2018-10-18T15:50:39.013Z,51.73
2018-10-18T15:53:07.817Z,113.47
2018-10-18T15:55:38.651Z,14.60
2018-10-18T15:58:09.015Z,21.10
2018-10-18T16:00:38.310Z,21.43
2018-10-18T16:03:05.820Z,18.57
2018-10-18T16:05:33.517Z,20.43
2018-10-18T16:08:03.307Z,32.87
2018-10-18T16:10:31.856Z,32.93
2018-10-18T16:12:59.482Z,13.57
2018-10-18T16:15:28.249Z,20.87
2018-10-18T16:17:58.393Z,23.40
2018-10-18T16:20:25.804Z,23.17
2018-10-18T16:22:54.467Z,19.80
2018-10-18T16:25:21.745Z,22.00
2018-10-18T16:27:49.603Z,17.30
2018-10-18T16:30:17.959Z,15.93
2018-10-18T16:32:46.294Z,20.47
2018-10-18T16:35:27.407Z,15.90
2018-10-18T16:37:56.516Z,16.57
2018-10-18T16:40:24.258Z,16.40
2018-10-18T16:42:55.035Z,16.90
2018-10-18T16:45:24.750Z,14.70
2018-10-18T16:52:38.741Z,16.30
2018-10-18T16:55:07.292Z,13.23
2018-10-18T16:57:34.931Z,21.43
2018-10-18T17:00:02.704Z,17.53
2018-10-18T17:02:31.873Z,16.77
2018-10-18T17:05:00.551Z,21.43
2018-10-18T17:07:30.039Z,15.10
2018-10-18T17:09:57.602Z,17.83
2018-10-18T17:12:25.106Z,17.63
2018-10-18T17:14:55.563Z,15.73
2018-10-18T17:17:23.091Z,18.77
2018-10-18T17:19:51.077Z,15.87
2018-10-18T17:22:20.927Z,15.70
2018-10-18T17:24:49.979Z,13.17
2018-10-18T17:27:19.973Z,20.03
2018-10-18T17:29:47.368Z,18.20
2018-10-18T17:32:15.134Z,16.10
2018-10-18T17:34:44.703Z,17.97
2018-10-18T17:37:12.867Z,21.80
2018-10-18T17:39:40.732Z,19.67
2018-10-18T17:42:10.495Z,17.40
2018-10-18T17:44:40.170Z,22.70
2018-10-18T17:47:09.632Z,18.40
2018-10-18T17:49:37.263Z,19.70
2018-10-18T17:52:05.376Z,17.23
2018-10-18T17:54:33.022Z,17.07
2018-10-18T17:57:00.457Z,17.83
2018-10-18T17:59:28.084Z,25.27
2018-10-18T18:01:56.407Z,21.17
2018-10-18T18:04:23.919Z,19.20
2018-10-18T18:06:51.399Z,16.93
2018-10-18T18:09:19.891Z,38.40
2018-10-18T18:11:48.273Z,22.17
2018-10-18T18:14:16.232Z,20.30
2018-10-18T18:16:45.642Z,17.33
2018-10-18T18:19:15.279Z,19.00
2018-10-18T18:21:43.694Z,19.53
2018-10-18T18:24:11.173Z,15.73
2018-10-18T18:26:45.265Z,27.93
2018-10-18T18:29:06.448Z,20.73
2018-10-18T18:31:34.791Z,18.87
2018-10-18T18:34:03.421Z,21.33
2018-10-18T18:36:33.120Z,25.30
2018-10-18T18:39:02.567Z,29.63
2018-10-18T18:41:30.254Z,25.23
2018-10-18T18:43:57.918Z,23.90
2018-10-18T18:46:25.169Z,28.57
2018-10-18T18:48:52.558Z,24.30
2018-10-18T18:51:20.340Z,25.20
2018-10-18T18:53:48.373Z,27.63
2018-10-18T18:56:16.406Z,23.67
2018-10-18T18:58:43.992Z,24.30
2018-10-18T19:08:10.216Z,24.10
2018-10-18T19:10:37.607Z,24.40
2018-10-18T19:13:06.338Z,27.60
2018-10-18T19:15:33.834Z,32.13
2018-10-18T19:18:03.104Z,26.73
2018-10-18T19:20:30.604Z,24.83
2018-10-18T19:22:59.291Z,28.03
2018-10-18T19:25:27.012Z,22.07
2018-10-18T19:27:54.526Z,35.87
2018-10-18T19:30:24.266Z,29.57
2018-10-18T19:32:53.074Z,46.33
2018-10-18T19:35:22.746Z,29.83
2018-10-18T19:37:50.259Z,35.47
2018-10-18T19:40:18.428Z,30.50
2018-10-18T19:42:46.373Z,26.13
2018-10-18T19:45:13.852Z,29.27
2018-10-18T19:47:42.422Z,26.10
2018-10-18T19:50:10.201Z,29.30
2018-10-18T19:52:37.921Z,31.80
2018-10-18T19:55:06.020Z,33.10
2018-10-18T19:57:33.487Z,31.60
2018-10-18T20:00:01.300Z,31.20
2018-10-18T20:02:28.605Z,39.77
2018-10-18T20:04:56.886Z,34.80
2018-10-18T20:07:24.376Z,35.07
2018-10-18T20:09:51.915Z,35.07
2018-10-18T20:12:19.618Z,44.77
2018-10-18T20:14:47.046Z,41.20
2018-10-18T20:17:14.510Z,42.27
2018-10-18T20:19:42.402Z,34.23
2018-10-18T20:22:11.526Z,35.70
2018-10-18T20:24:38.982Z,38.73
2018-10-18T20:27:06.709Z,40.50
2018-10-18T20:29:34.062Z,40.67
2018-10-18T20:32:02.241Z,42.30
2018-10-18T20:34:29.686Z,41.67
2018-10-18T20:36:57.160Z,40.73
2018-10-18T20:39:24.776Z,40.03
2018-10-18T20:41:52.296Z,50.67
2018-10-18T20:44:20.507Z,43.10
2018-10-18T20:46:48.629Z,41.10
2018-10-18T20:49:16.177Z,40.90
2018-10-18T20:51:43.620Z,34.87
2018-10-18T20:54:11.123Z,39.17
2018-10-18T20:56:39.580Z,40.07
2018-10-18T20:59:08.295Z,41.67
2018-10-18T21:01:35.785Z,41.33
2018-10-18T21:04:04.609Z,45.77
2018-10-18T21:06:32.199Z,45.70
2018-10-18T21:08:59.531Z,36.47
2018-10-18T21:11:28.389Z,44.53
2018-10-18T21:13:56.682Z,46.97
2018-10-18T21:16:23.960Z,41.13
2018-10-18T21:18:51.385Z,44.93
2018-10-18T21:21:19.770Z,40.50
2018-10-18T21:23:47.136Z,42.50
2018-10-18T21:26:14.569Z,45.27
2018-10-18T21:28:42.042Z,38.83
2018-10-18T21:31:10.317Z,45.20
2018-10-18T21:33:37.844Z,45.80
2018-10-18T21:36:06.274Z,47.07
2018-10-18T21:38:33.563Z,47.50
2018-10-18T21:41:02.497Z,51.63
2018-10-18T21:43:29.913Z,51.57
2018-10-18T21:45:59.514Z,50.97
2018-10-18T21:48:28.202Z,51.63
2018-10-18T21:50:55.799Z,55.73
2018-10-18T21:53:23.168Z,61.23
2018-10-18T21:55:51.745Z,52.87
2018-10-18T21:58:19.820Z,58.60
2018-10-18T22:00:48.084Z,61.43
2018-10-18T22:03:15.642Z,59.63
2018-10-18T22:05:42.856Z,57.30
2018-10-18T22:08:11.451Z,71.77
2018-10-18T22:10:38.797Z,66.87
2018-10-18T22:13:06.294Z,68.30
2018-10-18T22:15:35.870Z,65.87
2018-10-18T22:18:05.358Z,66.17
2018-10-18T22:20:33.507Z,72.70
2018-10-18T22:23:01.015Z,66.83
2018-10-18T22:25:28.470Z,79.87
2018-10-18T22:27:55.992Z,62.80
2018-10-18T22:30:23.498Z,63.13
2018-10-18T22:32:50.845Z,70.23
2018-10-18T22:35:18.190Z,69.13
2018-10-18T22:37:47.266Z,66.60
2018-10-18T22:40:14.744Z,70.13
2018-10-18T22:42:42.234Z,75.75
2018-10-18T22:45:11.587Z,65.27
2018-10-18T22:47:38.958Z,65.65
2018-10-18T22:50:06.531Z,64.73
2018-10-18T22:52:36.121Z,70.97
2018-10-18T22:55:05.491Z,62.30
2018-10-18T22:57:33.911Z,64.58
2018-10-18T23:00:01.281Z,72.77
2018-10-18T23:02:28.531Z,80.50
2018-10-18T23:05:07.723Z,74.82
2018-10-18T23:07:35.541Z,74.15
2018-10-18T23:10:05.846Z,67.80
2018-10-18T23:12:33.273Z,68.78
2018-10-18T23:15:01.636Z,75.50
2018-10-18T23:17:31.176Z,76.80
2018-10-18T23:19:58.724Z,65.10
2018-10-18T23:22:26.293Z,73.35
2018-10-18T23:24:53.712Z,73.28
2018-10-18T23:27:20.524Z,75.37
2018-10-18T23:29:50.850Z,78.95
2018-10-18T23:32:19.290Z,70.78
2018-10-18T23:34:51.010Z,69.70
2018-10-18T23:37:18.740Z,64.97
2018-10-18T23:39:46.495Z,72.80
2018-10-18T23:42:14.084Z,65.00
2018-10-18T23:44:41.539Z,63.73
2018-10-18T23:47:12.811Z,62.48
2018-10-18T23:49:42.501Z,59.40
2018-10-18T23:52:15.370Z,60.38
2018-10-18T23:54:44.368Z,79.77
2018-10-18T23:57:11.663Z,67.92
2018-10-18T23:59:42.353Z,66.82
